Time;durP1;ratioP1;P1;durP2;ratioP2;P2;SDS_P1;SDS_P2;PMS_P1;PMS_P2;Temp;Humidity;BMP_temperature;BMP_pressure;BME280_temperature;BME280_humidity;BME280_pressure;Samples;Min_cycle;Max_cycle;Signal;HPM_P1;HPM_P2
2022/05/01 00:01:54;;;;;;;6.15;5.55;;;;;;;11.54;61.70;95272.44;5033677;28;20273;-68
2022/05/01 00:04:23;;;;;;;6.10;5.50;;;;;;;11.50;61.65;95279.81;5034206;28;20190;-67
2022/05/01 00:06:50;;;;;;;6.07;5.53;;;;;;;11.49;61.72;95281.00;5034274;28;20190;-68
2022/05/01 00:09:19;;;;;;;6.35;5.75;;;;;;;11.49;61.98;95280.19;5033888;28;20194;-68
2022/05/01 00:11:49;;;;;;;6.13;5.63;;;;;;;11.49;62.34;95269.13;5032935;28;20298;-68
2022/05/01 00:14:18;;;;;;;6.28;5.50;;;;;;;11.43;62.23;95257.53;5033070;28;20190;-68
2022/05/01 00:16:46;;;;;;;6.38;5.70;;;;;;;11.43;62.74;95265.81;5032982;28;20642;-68
2022/05/01 00:19:17;;;;;;;6.03;5.50;;;;;;;11.40;62.72;95258.25;5016591;28;20645;-68
2022/05/01 00:21:45;;;;;;;5.95;5.40;;;;;;;11.37;62.16;95258.97;5016096;28;20629;-68
2022/05/01 00:24:13;;;;;;;5.82;5.30;;;;;;;11.37;63.12;95258.16;5032917;28;20194;-68
2022/05/01 00:26:41;;;;;;;6.00;5.40;;;;;;;11.32;62.96;95254.47;5032756;28;20277;-69
2022/05/01 00:29:11;;;;;;;6.13;5.63;;;;;;;11.29;63.38;95251.63;5016305;28;20234;-69
2022/05/01 00:31:42;;;;;;;7.53;5.95;;;;;;;11.27;62.92;95246.47;5033219;28;20521;-69
2022/05/01 00:37:15;;;;;;;6.03;5.43;;;;;;;11.23;62.89;95247.53;5034081;28;20180;-68
2022/05/01 00:39:46;;;;;;;7.30;6.18;;;;;;;11.18;62.63;95243.03;5033660;28;20186;-69
2022/05/01 00:42:13;;;;;;;5.88;5.40;;;;;;;11.16;63.00;95244.56;5016333;28;20680;-69
2022/05/01 00:44:46;;;;;;;6.10;5.55;;;;;;;11.10;63.03;95244.00;5033106;28;20210;-69
2022/05/01 00:47:16;;;;;;;6.28;5.68;;;;;;;11.06;63.33;95245.88;5033041;28;20217;-69
2022/05/01 00:49:44;;;;;;;5.70;5.15;;;;;;;11.04;63.57;95237.16;5033887;28;20611;-68
2022/05/01 00:52:13;;;;;;;5.75;5.25;;;;;;;11.06;63.29;95234.84;5032768;28;20186;-68
2022/05/01 00:54:43;;;;;;;5.60;5.20;;;;;;;11.04;63.67;95234.41;5033483;28;20839;-68
2022/05/01 00:57:12;;;;;;;5.93;5.35;;;;;;;11.07;64.00;95244.72;5033448;28;20205;-68
2022/05/01 00:59:41;;;;;;;5.40;4.90;;;;;;;11.06;63.48;95243.91;5033487;28;20639;-68
2022/05/01 01:02:12;;;;;;;5.20;4.78;;;;;;;11.06;63.80;95240.34;5016411;28;20636;-68
2022/05/01 01:04:39;;;;;;;5.32;4.93;;;;;;;11.12;63.65;95241.72;5033302;28;20206;-68
2022/05/01 01:07:07;;;;;;;6.18;5.57;;;;;;;11.18;63.78;95243.03;5033224;28;20197;-68
2022/05/01 01:09:36;;;;;;;6.55;5.95;;;;;;;11.19;63.81;95241.13;5033485;28;20526;-68
2022/05/01 01:14:50;;;;;;;7.15;6.55;;;;;;;11.21;64.15;95242.34;5015811;28;20630;-67
2022/05/01 01:17:20;;;;;;;6.00;5.50;;;;;;;11.18;64.72;95232.00;5033437;28;20190;-67
2022/05/01 01:19:48;;;;;;;6.35;5.80;;;;;;;11.15;65.13;95232.72;5032512;28;20197;-68
2022/05/01 01:22:19;;;;;;;6.15;5.65;;;;;;;11.13;65.13;95237.00;5032070;28;20198;-68
2022/05/01 01:24:49;;;;;;;6.55;5.97;;;;;;;11.06;65.28;95227.34;5015361;28;20545;-68
2022/05/01 01:27:20;;;;;;;6.35;5.85;;;;;;;10.97;65.68;95226.72;5032872;28;20240;-68
2022/05/01 01:32:39;;;;;;;6.20;5.63;;;;;;;10.78;66.83;95221.03;5033171;28;20249;-68
2022/05/01 01:35:10;;;;;;;6.45;5.95;;;;;;;10.73;67.24;95221.28;5032437;28;20249;-68
2022/05/01 01:37:41;;;;;;;7.15;6.40;;;;;;;10.74;67.25;95218.16;5032574;28;20218;-68
2022/05/01 01:40:10;;;;;;;7.03;6.43;;;;;;;10.76;67.04;95231.63;5015958;28;20536;-68
2022/05/01 01:42:41;;;;;;;7.25;6.57;;;;;;;10.77;67.13;95227.69;5033103;28;20557;-68
2022/05/01 01:45:12;;;;;;;7.35;6.75;;;;;;;10.85;66.89;95224.78;5015846;28;20191;-68
2022/05/01 01:47:43;;;;;;;7.43;6.72;;;;;;;10.90;66.50;95234.00;5033252;28;20233;-69
2022/05/01 01:50:13;;;;;;;7.47;6.75;;;;;;;10.91;66.53;95230.06;5032240;28;20222;-68
2022/05/01 01:52:46;;;;;;;7.55;6.70;;;;;;;10.90;66.69;95222.97;5015837;28;20233;-68
2022/05/01 01:55:16;;;;;;;6.97;6.38;;;;;;;10.97;66.36;95223.97;5015919;28;20206;-68
2022/05/01 01:57:45;;;;;;;7.40;6.80;;;;;;;10.99;66.40;95221.63;5033129;28;20190;-68
2022/05/01 02:00:14;;;;;;;7.60;6.90;;;;;;;10.84;67.19;95225.94;5033221;28;20183;-68
2022/05/01 02:02:42;;;;;;;8.27;7.40;;;;;;;10.72;67.28;95223.25;5032355;28;20203;-68
2022/05/01 02:05:11;;;;;;;7.70;6.90;;;;;;;10.66;68.17;95229.34;5036489;28;20190;-68
2022/05/01 02:07:40;;;;;;;7.70;7.10;;;;;;;10.64;67.87;95224.19;5036398;28;20185;-67
2022/05/01 02:10:09;;;;;;;7.95;7.25;;;;;;;10.66;68.22;95218.31;5036239;28;20197;-67
2022/05/01 02:12:37;;;;;;;7.80;7.10;;;;;;;10.47;68.70;95222.50;5036704;28;20198;-67
2022/05/01 02:15:07;;;;;;;8.43;7.43;;;;;;;10.55;68.57;95221.56;5035202;28;20260;-67
2022/05/01 02:17:38;;;;;;;7.88;7.20;;;;;;;10.62;68.45;95222.94;5036120;28;20194;-67
2022/05/01 02:20:08;;;;;;;8.48;7.15;;;;;;;10.68;68.21;95221.53;5019105;28;20199;-67
2022/05/01 02:22:36;;;;;;;8.20;7.50;;;;;;;10.79;67.46;95228.97;5036395;28;20252;-67
2022/05/01 02:25:04;;;;;;;7.82;7.22;;;;;;;10.83;66.91;95226.31;5035253;28;20210;-67
2022/05/01 02:27:33;;;;;;;7.03;6.43;;;;;;;10.82;66.72;95227.44;5035700;28;20643;-67
2022/05/01 02:30:01;;;;;;;7.55;6.93;;;;;;;10.82;67.46;95235.72;5035912;28;20200;-67
2022/05/01 02:32:30;;;;;;;7.63;6.93;;;;;;;10.83;67.82;95234.59;5034886;28;20218;-67
2022/05/01 02:34:58;;;;;;;7.45;6.85;;;;;;;10.81;67.40;95225.84;5035249;28;20249;-67
2022/05/01 02:37:26;;;;;;;7.82;7.13;;;;;;;10.77;67.23;95228.50;5035982;28;20206;-67
2022/05/01 02:39:54;;;;;;;8.68;7.78;;;;;;;10.74;67.75;95220.13;5034971;28;20204;-67
2022/05/01 02:42:22;;;;;;;8.43;7.63;;;;;;;10.77;67.71;95216.66;5018317;28;20213;-67
2022/05/01 02:44:52;;;;;;;8.00;7.30;;;;;;;10.81;67.36;95215.59;5034975;28;20198;-67
2022/05/01 02:47:19;;;;;;;8.82;7.93;;;;;;;10.84;67.37;95220.44;5018286;28;20206;-68
2022/05/01 02:49:47;;;;;;;9.52;8.57;;;;;;;10.79;67.66;95214.38;5017949;28;20225;-68
2022/05/01 02:52:18;;;;;;;9.23;8.27;;;;;;;10.73;67.61;95218.53;5035461;28;20205;-68
2022/05/01 02:54:49;;;;;;;8.80;8.00;;;;;;;10.74;67.69;95214.59;5018026;28;20213;-67
2022/05/01 02:57:16;;;;;;;9.38;8.40;;;;;;;10.75;67.71;95219.00;5018118;28;20210;-68
2022/05/01 02:59:44;;;;;;;9.73;8.82;;;;;;;10.73;67.31;95222.09;5018311;28;20611;-68
2022/05/01 03:02:13;;;;;;;9.18;8.27;;;;;;;10.71;67.50;95218.06;5034675;28;20210;-68
2022/05/01 03:04:45;;;;;;;10.20;9.23;;;;;;;10.70;67.40;95225.53;5035289;28;20208;-67
2022/05/01 03:07:12;;;;;;;8.80;7.95;;;;;;;10.72;67.64;95217.72;5035394;28;20198;-68
2022/05/01 03:09:41;;;;;;;9.10;8.23;;;;;;;10.72;67.44;95223.25;5035876;28;20187;-68
2022/05/01 03:12:10;;;;;;;9.23;8.32;;;;;;;10.70;67.67;95220.03;5035431;28;20198;-68
2022/05/01 03:14:38;;;;;;;9.13;8.23;;;;;;;10.64;68.01;95229.72;5033531;28;20198;-68
2022/05/01 03:17:07;;;;;;;9.48;8.50;;;;;;;10.60;68.01;95235.13;5035347;28;20207;-68
2022/05/01 03:22:25;;;;;;;9.98;8.45;;;;;;;10.52;68.61;95230.53;5009525;28;20197;-68
2022/05/01 03:24:53;;;;;;;8.75;7.95;;;;;;;10.51;68.77;95225.38;5017856;28;20198;-68
2022/05/01 03:27:22;;;;;;;9.10;8.40;;;;;;;10.51;68.58;95234.44;5034941;28;20190;-68
2022/05/01 03:32:34;;;;;;;10.20;9.30;;;;;;;10.55;68.70;95246.38;5033866;28;20194;-68
2022/05/01 03:35:07;;;;;;;10.20;9.30;;;;;;;10.55;68.55;95237.31;5017702;28;20287;-68
2022/05/01 03:37:36;;;;;;;9.63;8.82;;;;;;;10.50;68.78;95245.84;5035171;28;20214;-68
2022/05/01 03:40:05;;;;;;;10.18;9.27;;;;;;;10.49;68.43;95255.25;5034067;28;20542;-68
2022/05/01 03:42:33;;;;;;;10.70;9.80;;;;;;;10.46;68.40;95256.75;5035017;28;20178;-68
2022/05/01 03:45:01;;;;;;;10.13;9.15;;;;;;;10.42;67.68;95263.28;5017480;28;20206;-68
2022/05/01 03:47:29;;;;;;;10.70;9.70;;;;;;;10.36;67.93;95271.00;5017511;28;20194;-68
2022/05/01 03:49:58;;;;;;;10.90;9.80;;;;;;;10.33;67.95;95277.22;5035005;28;20182;-70
2022/05/01 03:52:27;;;;;;;10.52;9.52;;;;;;;10.32;68.44;95275.63;5033761;28;20594;-70
2022/05/01 03:54:59;;;;;;;10.45;9.45;;;;;;;10.32;67.79;95268.16;5017815;28;20218;-72
2022/05/01 03:57:26;;;;;;;9.88;9.05;;;;;;;10.32;67.34;95273.66;5017670;28;20236;-68
2022/05/01 03:59:55;;;;;;;10.88;9.40;;;;;;;10.24;67.50;95268.22;5035204;28;20182;-68
2022/05/01 04:02:23;;;;;;;10.68;9.57;;;;;;;10.20;67.71;95267.31;5034765;28;20187;-67
2022/05/01 04:04:52;;;;;;;9.65;8.82;;;;;;;10.18;68.33;95267.66;5017183;28;20289;-68
2022/05/01 04:07:20;;;;;;;10.20;9.30;;;;;;;10.17;68.15;95276.25;5033714;28;20448;-67
2022/05/01 04:09:52;;;;;;;9.43;8.63;;;;;;;10.18;68.18;95283.41;5017014;28;20288;-66
2022/05/01 04:12:22;;;;;;;10.45;9.32;;;;;;;10.19;67.60;95283.03;5033126;28;20190;-67
2022/05/01 04:14:51;;;;;;;10.18;9.18;;;;;;;10.18;68.27;95277.88;5034372;28;20214;-67
2022/05/01 04:17:19;;;;;;;9.65;8.48;;;;;;;10.16;68.14;95286.50;5016867;28;20226;-67
2022/05/01 04:19:48;;;;;;;10.75;9.68;;;;;;;10.17;68.60;95290.88;5017067;28;20203;-67
2022/05/01 04:22:16;;;;;;;9.50;8.70;;;;;;;10.21;68.48;95288.22;5016572;28;20209;-67
2022/05/01 04:24:45;;;;;;;10.05;9.00;;;;;;;10.23;68.25;95283.97;5033256;28;20217;-66
2022/05/01 04:27:17;;;;;;;9.77;8.85;;;;;;;10.23;68.74;95286.72;5033499;28;20193;-66
2022/05/01 04:29:44;;;;;;;9.80;8.25;;;;;;;10.26;68.55;95288.03;5016689;28;20217;-67
2022/05/01 04:32:16;;;;;;;10.18;9.05;;;;;;;10.25;68.81;95300.16;5034254;28;20182;-66
2022/05/01 04:34:44;;;;;;;9.35;8.52;;;;;;;10.30;69.22;95289.72;5033250;28;20214;-66
2022/05/01 04:37:12;;;;;;;10.02;9.13;;;;;;;10.35;68.86;95294.22;5033379;28;20218;-66
2022/05/01 04:39:40;;;;;;;10.15;9.23;;;;;;;10.39;68.45;95288.81;5034145;28;20191;-66
2022/05/01 04:42:08;;;;;;;10.13;9.13;;;;;;;10.49;68.31;95280.84;5032749;28;20208;-67
2022/05/01 04:44:38;;;;;;;10.77;9.77;;;;;;;10.54;68.07;95282.59;5016535;28;20329;-65
2022/05/01 04:47:05;;;;;;;10.50;9.35;;;;;;;10.53;68.50;95286.47;5034080;28;20206;-65
2022/05/01 04:49:32;;;;;;;11.57;10.48;;;;;;;10.56;68.46;95281.06;5033761;28;20213;-65
2022/05/01 04:52:00;;;;;;;12.20;11.00;;;;;;;10.82;67.75;95272.41;5033770;28;20292;-65
2022/05/01 04:54:29;;;;;;;13.55;12.23;;;;;;;11.40;65.90;95268.47;5033915;28;20182;-66
2022/05/01 04:57:09;;;;;;;11.27;10.23;;;;;;;11.22;66.70;95268.81;5016267;28;20211;-66
2022/05/01 04:59:43;;;;;;;10.75;9.77;;;;;;;11.00;67.20;95272.94;5016444;28;20263;-66
2022/05/01 05:02:11;;;;;;;11.25;10.23;;;;;;;10.90;68.06;95278.94;5016278;28;20201;-66
2022/05/01 05:04:40;;;;;;;11.00;9.90;;;;;;;10.86;68.63;95278.03;5033973;28;20179;-65
2022/05/01 05:07:08;;;;;;;12.45;10.05;;;;;;;10.85;68.77;95277.22;5032758;28;20297;-65
2022/05/01 05:12:23;;;;;;;9.55;8.75;;;;;;;10.95;68.09;95286.16;5033423;28;20609;-65
2022/05/01 05:14:55;;;;;;;10.07;9.27;;;;;;;11.02;68.14;95281.66;5032760;28;20278;-65
2022/05/01 05:17:24;;;;;;;9.93;8.93;;;;;;;11.08;67.72;95283.03;5033702;28;20205;-66
2022/05/01 05:19:52;;;;;;;8.98;8.15;;;;;;;11.06;67.54;95287.28;5016448;28;20202;-66
2022/05/01 05:22:21;;;;;;;9.35;8.52;;;;;;;11.05;67.95;95286.47;5016298;28;20207;-66
2022/05/01 05:24:49;;;;;;;11.30;10.13;;;;;;;11.04;67.92;95295.13;5033825;28;20187;-65
2022/05/01 05:27:20;;;;;;;10.00;9.20;;;;;;;10.90;68.34;95287.22;5015999;28;20605;-66
2022/05/01 05:29:48;;;;;;;10.15;9.23;;;;;;;10.87;68.69;95289.88;5015234;28;20330;-66
2022/05/01 05:32:21;;;;;;;9.75;8.85;;;;;;;10.99;68.43;95289.84;5032525;28;20206;-66
2022/05/01 05:34:49;;;;;;;10.23;9.27;;;;;;;11.14;68.32;95291.03;5031271;28;20213;-66
2022/05/01 05:37:18;;;;;;;10.07;9.27;;;;;;;11.22;68.26;95298.38;5015320;28;20218;-66
2022/05/01 05:39:47;;;;;;;9.93;9.02;;;;;;;11.32;67.89;95300.63;5035879;28;20193;-66
2022/05/01 05:42:17;;;;;;;9.38;8.63;;;;;;;11.40;68.00;95293.34;5034974;28;20206;-66
2022/05/01 05:44:46;;;;;;;9.60;8.77;;;;;;;11.40;68.22;95287.81;5035922;28;20182;-66
2022/05/01 05:47:14;;;;;;;9.35;8.55;;;;;;;11.44;67.67;95286.78;5034582;28;20622;-65
2022/05/01 05:49:47;;;;;;;9.40;8.60;;;;;;;11.42;67.90;95285.53;5034902;28;20210;-65
2022/05/01 05:52:16;;;;;;;9.98;9.00;;;;;;;11.36;67.59;95282.19;5018282;28;20263;-66
2022/05/01 05:54:44;;;;;;;10.48;9.18;;;;;;;11.45;67.37;95287.56;5018278;28;20190;-66
2022/05/01 05:57:13;;;;;;;9.95;9.05;;;;;;;11.52;67.81;95282.25;5018250;28;20218;-67
2022/05/01 05:59:40;;;;;;;9.70;8.80;;;;;;;11.56;67.38;95294.19;5035366;28;20205;-66
2022/05/01 06:02:09;;;;;;;9.40;8.63;;;;;;;11.54;68.13;95277.94;5034664;28;20195;-66
2022/05/01 06:04:37;;;;;;;9.60;8.80;;;;;;;11.64;67.79;95284.13;5026686;28;20202;-66
2022/05/01 06:07:08;;;;;;;8.88;8.07;;;;;;;11.72;67.43;95292.25;5035217;28;20187;-66
2022/05/01 06:09:36;;;;;;;8.10;7.40;;;;;;;11.74;66.78;95287.19;5017965;28;20207;-67
2022/05/01 06:12:06;;;;;;;8.60;7.90;;;;;;;11.65;67.14;95294.81;5035465;28;20178;-66
2022/05/01 06:14:32;;;;;;;8.65;7.95;;;;;;;11.75;66.90;95293.50;5034251;28;20213;-67
2022/05/01 06:17:01;;;;;;;9.82;8.50;;;;;;;11.79;67.22;95297.16;5017752;28;20218;-67
2022/05/01 06:19:29;;;;;;;8.50;7.50;;;;;;;11.84;66.91;95291.41;5035139;28;20494;-66
2022/05/01 06:22:01;;;;;;;9.13;6.50;;;;;;;11.90;67.71;95294.69;5034192;28;20211;-66
2022/05/01 06:24:31;;;;;;;4.95;4.00;;;;;;;12.11;68.00;95295.25;5017510;28;20209;-69
2022/05/01 06:27:00;;;;;;;7.47;5.68;;;;;;;12.35;67.63;95283.19;5035240;28;20256;-68
2022/05/01 06:29:28;;;;;;;5.57;5.07;;;;;;;12.41;66.17;95298.34;4977943;28;1673875;-69
2022/05/01 06:31:58;;;;;;;4.53;4.10;;;;;;;12.48;65.71;95294.94;5035267;28;20293;-67
2022/05/01 06:34:26;;;;;;;6.93;6.30;;;;;;;12.58;65.00;95293.59;5035221;28;20233;-67
2022/05/01 06:36:54;;;;;;;6.75;6.03;;;;;;;12.61;65.45;95301.16;5035831;28;20218;-70
2022/05/01 06:39:23;;;;;;;6.97;6.28;;;;;;;12.66;64.57;95298.13;5018826;28;20197;-67
2022/05/01 06:41:52;;;;;;;7.50;6.78;;;;;;;12.70;64.52;95296.22;5035432;28;20202;-69
2022/05/01 06:44:21;;;;;;;7.63;6.68;;;;;;;12.70;64.26;95290.69;5036685;28;20528;-69
2022/05/01 06:46:50;;;;;;;7.35;6.65;;;;;;;12.76;64.62;95287.28;5037959;28;20200;-69
2022/05/01 06:49:18;;;;;;;7.85;7.05;;;;;;;12.79;63.60;95287.75;5020193;28;20285;-69
2022/05/01 06:51:46;;;;;;;7.60;6.00;;;;;;;12.75;63.38;95285.69;5037828;28;20225;-69
2022/05/01 06:54:15;;;;;;;6.70;5.22;;;;;;;12.82;64.44;95287.00;5036588;28;20217;-67
2022/05/01 06:56:44;;;;;;;8.57;7.22;;;;;;;12.94;63.07;95286.88;5018786;28;20194;-71
2022/05/01 06:59:18;;;;;;;8.48;7.70;;;;;;;12.84;62.97;95281.91;5036126;28;20191;-67
2022/05/01 07:01:47;;;;;;;8.48;7.78;;;;;;;12.78;63.13;95286.91;5035894;28;20206;-68
2022/05/01 07:04:18;;;;;;;7.13;6.57;;;;;;;12.76;62.33;95287.28;5037184;28;20329;-68
2022/05/01 07:06:48;;;;;;;7.55;6.78;;;;;;;12.79;63.01;95282.22;5019043;28;20222;-68
2022/05/01 07:09:16;;;;;;;7.38;6.78;;;;;;;12.77;62.16;95277.81;5035300;28;20209;-69
2022/05/01 07:11:44;;;;;;;7.85;7.05;;;;;;;12.63;62.43;95276.69;5018192;28;20217;-70
2022/05/01 07:14:14;;;;;;;7.82;7.13;;;;;;;12.71;63.62;95272.94;5036149;28;20201;-69
2022/05/01 07:16:42;;;;;;;7.68;6.97;;;;;;;12.83;63.68;95280.31;5034041;28;20198;-68
2022/05/01 07:19:10;;;;;;;7.28;6.68;;;;;;;13.07;63.24;95284.75;5017972;28;20202;-67
2022/05/01 07:21:38;;;;;;;7.32;6.63;;;;;;;13.29;61.89;95286.84;5018349;28;20605;-68
2022/05/01 07:24:07;;;;;;;8.27;6.18;;;;;;;13.48;60.15;95283.28;5019060;28;20297;-70
2022/05/01 07:26:36;;;;;;;7.30;6.35;;;;;;;13.59;60.43;95278.72;5035568;28;20196;-67
2022/05/01 07:29:05;;;;;;;7.85;6.75;;;;;;;13.74;60.63;95279.78;5034247;28;20265;-67
2022/05/01 07:31:34;;;;;;;7.00;6.18;;;;;;;13.82;60.15;95269.63;5034846;28;20186;-66
2022/05/01 07:34:02;;;;;;;7.07;6.47;;;;;;;13.95;60.61;95269.09;5034457;28;20208;-66
2022/05/01 07:36:30;;;;;;;9.13;6.80;;;;;;;14.04;60.18;95268.84;5034832;28;20301;-67
2022/05/01 07:38:58;;;;;;;7.25;6.65;;;;;;;14.12;60.63;95272.53;5018297;28;20218;-67
2022/05/01 07:41:27;;;;;;;8.02;7.32;;;;;;;13.99;58.21;95277.47;5035255;28;20526;-67
2022/05/01 07:43:56;;;;;;;7.28;6.57;;;;;;;13.88;59.04;95279.25;5034502;28;20191;-67
2022/05/01 07:46:25;;;;;;;7.90;7.18;;;;;;;13.85;59.05;95280.00;5017627;28;20191;-67
2022/05/01 07:48:54;;;;;;;7.47;6.88;;;;;;;13.76;58.48;95279.41;5034362;28;20538;-67
2022/05/01 07:51:22;;;;;;;7.85;7.10;;;;;;;13.69;58.56;95282.88;5034814;28;20214;-67
2022/05/01 07:53:50;;;;;;;7.57;6.97;;;;;;;13.73;59.31;95286.53;5034602;28;20194;-68
2022/05/01 07:56:21;;;;;;;7.57;6.88;;;;;;;13.77;58.77;95281.84;5034877;28;20212;-67
2022/05/01 07:58:52;;;;;;;7.50;6.80;;;;;;;13.88;58.47;95279.25;5034632;28;20228;-67
2022/05/01 08:01:21;;;;;;;7.43;6.57;;;;;;;14.01;58.53;95275.13;5033660;28;20221;-67
2022/05/01 08:06:38;;;;;;;7.30;6.60;;;;;;;14.21;55.63;95271.09;5017374;28;20210;-67
2022/05/01 08:09:06;;;;;;;7.20;6.50;;;;;;;14.27;55.64;95276.31;5034398;28;20182;-67
2022/05/01 08:11:34;;;;;;;6.40;5.80;;;;;;;14.26;54.45;95275.53;5034554;28;20194;-68
2022/05/01 08:14:03;;;;;;;6.28;5.65;;;;;;;14.39;55.05;95273.38;5033913;28;20186;-69
2022/05/01 08:16:31;;;;;;;6.90;6.30;;;;;;;14.46;54.91;95270.72;5033629;28;20579;-69
2022/05/01 08:21:47;;;;;;;7.43;6.65;;;;;;;14.42;54.04;95269.84;5033894;28;20185;-69
2022/05/01 08:24:18;;;;;;;7.28;6.57;;;;;;;14.37;55.01;95262.63;5033935;28;20202;-69
2022/05/01 08:26:48;;;;;;;8.00;7.18;;;;;;;14.41;55.88;95255.16;5032710;28;20198;-68
2022/05/01 08:29:17;;;;;;;7.53;6.75;;;;;;;14.44;54.52;95253.63;5033585;28;20269;-68
2022/05/01 08:31:45;;;;;;;7.00;6.40;;;;;;;14.48;52.97;95257.25;5000647;28;20198;-69
2022/05/01 08:34:12;;;;;;;6.78;6.18;;;;;;;14.59;54.57;95263.00;5032893;28;20220;-69
2022/05/01 08:36:41;;;;;;;6.90;6.22;;;;;;;14.74;54.15;95252.88;5033955;28;20183;-69
2022/05/01 08:39:11;;;;;;;6.18;5.57;;;;;;;14.95;52.06;95250.41;5033380;28;20214;-69
2022/05/01 08:41:40;;;;;;;5.90;5.50;;;;;;;15.15;50.75;95239.97;5032838;28;20292;-69
2022/05/01 08:44:13;;;;;;;6.60;5.90;;;;;;;15.25;51.26;95236.50;5033894;28;20321;-68
2022/05/01 08:46:53;;;;;;;5.97;5.43;;;;;;;15.32;52.03;95244.94;5015939;28;20206;-68
2022/05/01 08:49:22;;;;;;;7.35;5.00;;;;;;;15.32;51.13;95239.38;5032804;28;20206;-68
2022/05/01 08:51:52;;;;;;;5.68;5.18;;;;;;;15.24;53.03;95226.56;5033720;28;20248;-68
2022/05/01 08:54:23;;;;;;;5.70;5.30;;;;;;;15.29;51.04;95231.00;5016247;28;20295;-69
2022/05/01 08:56:50;;;;;;;6.80;6.20;;;;;;;15.27;52.11;95236.91;5015621;28;20210;-69
2022/05/01 08:59:19;;;;;;;6.25;5.18;;;;;;;15.29;50.25;95231.00;5033354;28;20224;-68
2022/05/01 09:01:47;;;;;;;5.20;4.80;;;;;;;15.31;49.46;95232.19;5032745;28;20207;-69
2022/05/01 09:04:15;;;;;;;5.03;4.68;;;;;;;15.34;50.40;95231.44;5033282;28;20545;-69
2022/05/01 09:06:45;;;;;;;5.20;4.80;;;;;;;15.32;49.64;95228.25;5032671;28;20226;-69
2022/05/01 09:09:17;;;;;;;5.43;5.03;;;;;;;15.31;48.41;95225.84;5033421;28;20209;-68
2022/05/01 09:14:33;;;;;;;4.80;4.50;;;;;;;15.30;49.25;95221.47;5037561;28;20199;-68
2022/05/01 09:17:13;;;;;;;5.53;5.13;;;;;;;15.30;48.10;95215.91;5037716;28;20198;-68
2022/05/01 09:19:42;;;;;;;4.93;4.53;;;;;;;15.29;49.28;95212.34;5020672;28;20494;-65
2022/05/01 09:22:11;;;;;;;4.97;4.57;;;;;;;15.29;47.10;95211.56;5038071;28;20214;-67
2022/05/01 09:24:39;;;;;;;4.82;4.47;;;;;;;15.23;47.20;95205.53;5038299;28;20219;-66
2022/05/01 09:27:25;;;;;;;4.40;4.00;;;;;;;15.21;48.61;95210.66;5037650;28;20222;-67
2022/05/01 09:30:12;;;;;;;4.40;4.10;;;;;;;15.18;47.62;95200.31;5000569;28;20630;-68
2022/05/01 09:32:41;;;;;;;4.03;3.63;;;;;;;15.19;46.63;95192.78;5010244;28;20199;-67
2022/05/01 09:35:15;;;;;;;3.30;3.10;;;;;;;15.31;43.63;95195.28;5017528;28;20207;-67
2022/05/01 09:37:44;;;;;;;3.03;2.83;;;;;;;15.43;44.57;95177.53;4999947;28;20254;-67
2022/05/01 09:40:13;;;;;;;3.40;3.10;;;;;;;15.68;44.27;95183.38;5016461;28;20203;-68
2022/05/01 09:42:43;;;;;;;4.32;3.00;;;;;;;15.73;43.87;95175.50;5000100;28;20468;-68
2022/05/01 09:45:13;;;;;;;4.03;3.30;;;;;;;15.68;43.44;95180.59;5016602;28;20198;-68
2022/05/01 09:47:42;;;;;;;3.90;3.60;;;;;;;15.64;43.98;95174.97;5000302;28;20213;-68
2022/05/01 09:50:16;;;;;;;4.05;3.70;;;;;;;15.66;45.46;95172.66;5016698;28;20202;-68
2022/05/01 09:52:55;;;;;;;3.30;3.10;;;;;;;15.74;45.49;95170.72;5016559;28;20193;-65
2022/05/01 09:55:23;;;;;;;3.78;3.47;;;;;;;15.85;42.39;95158.50;4999945;28;20245;-65
2022/05/01 09:58:03;;;;;;;3.00;2.80;;;;;;;15.81;41.07;95160.47;5017476;28;20211;-66
2022/05/01 10:00:42;;;;;;;3.47;3.08;;;;;;;15.84;40.86;95170.03;5017310;28;20187;-66
2022/05/01 10:03:24;;;;;;;2.78;2.58;;;;;;;16.04;40.69;95162.22;5000370;28;20222;-68
2022/05/01 10:05:53;;;;;;;2.90;2.70;;;;;;;16.15;41.68;95160.31;5017649;28;20193;-67
2022/05/01 10:08:21;;;;;;;2.80;2.60;;;;;;;16.22;40.36;95154.81;5016577;28;20542;-66
2022/05/01 10:10:52;;;;;;;2.47;2.28;;;;;;;16.14;39.77;95144.81;5017005;28;20192;-66
2022/05/01 10:13:24;;;;;;;3.08;2.88;;;;;;;16.16;42.90;95147.19;5015573;28;20265;-67
2022/05/01 10:15:55;;;;;;;5.10;3.17;;;;;;;16.19;40.70;95141.66;5015655;28;20207;-66
2022/05/01 10:18:22;;;;;;;3.22;2.88;;;;;;;16.28;40.34;95150.47;5015463;28;20234;-66
2022/05/01 10:20:50;;;;;;;4.00;2.65;;;;;;;16.40;42.09;95140.22;4999990;28;20199;-71
2022/05/01 10:23:19;;;;;;;2.97;2.78;;;;;;;16.58;42.16;95141.09;4999520;28;20203;-72
2022/05/01 10:25:49;;;;;;;3.20;2.70;;;;;;;16.81;40.09;95135.25;5000194;28;20195;-72
2022/05/01 10:28:28;;;;;;;2.38;2.28;;;;;;;17.04;39.08;95127.41;5025389;28;20336;-71
2022/05/01 10:34:23;;;;;;;3.13;2.92;;;;;;;17.18;39.03;95125.88;5019433;28;20189;-71
2022/05/01 10:37:15;;;;;;;3.00;2.80;;;;;;;17.04;38.13;95123.84;5036448;28;20204;-71
2022/05/01 10:39:42;;;;;;;2.90;2.70;;;;;;;16.90;38.35;95115.41;5035882;28;20218;-71
2022/05/01 10:42:10;;;;;;;2.92;2.72;;;;;;;16.91;40.24;95120.59;5035618;28;20194;-71
2022/05/01 10:44:40;;;;;;;2.95;2.65;;;;;;;17.07;38.24;95112.69;5019467;28;20187;-72
2022/05/01 10:47:12;;;;;;;2.95;2.75;;;;;;;17.19;38.89;95105.94;5019455;28;20206;-71
2022/05/01 10:49:42;;;;;;;5.15;3.05;;;;;;;17.33;41.52;95103.19;5037402;28;20505;-71
2022/05/01 10:52:19;;;;;;;3.30;3.00;;;;;;;17.64;39.89;95089.66;5019984;28;20211;-71
2022/05/01 10:54:59;;;;;;;3.42;3.15;;;;;;;17.81;39.44;95088.13;5036555;28;20197;-71
2022/05/01 10:57:27;;;;;;;3.10;2.80;;;;;;;17.96;38.50;95086.91;5019168;28;20202;-71
2022/05/01 11:00:40;;;;;;;4.60;3.20;;;;;;;18.10;41.06;95088.88;5036485;28;20218;-71
2022/05/01 11:03:24;;;;;;;3.30;2.80;;;;;;;18.28;40.58;95086.06;5019269;28;20601;-71
2022/05/01 11:05:55;;;;;;;10.45;3.70;;;;;;;18.21;37.88;95091.66;5037793;28;20665;-70
2022/05/01 11:08:28;;;;;;;4.05;2.90;;;;;;;17.91;40.17;95081.72;5036844;28;20211;-71
2022/05/01 11:10:59;;;;;;;3.17;2.90;;;;;;;18.10;41.50;95080.50;5038198;28;20221;-71
2022/05/01 11:13:30;;;;;;;3.10;2.90;;;;;;;17.98;38.14;95072.56;5037177;28;20233;-71
2022/05/01 11:15:59;;;;;;;2.78;2.58;;;;;;;18.02;37.27;95079.72;5019131;28;20218;-71
2022/05/01 11:18:30;;;;;;;3.10;2.90;;;;;;;18.02;41.49;95071.34;5035498;28;20229;-71
2022/05/01 11:21:32;;;;;;;3.20;3.00;;;;;;;18.29;39.58;95068.91;5036726;28;20190;-71
2022/05/01 11:24:00;;;;;;;3.72;3.00;;;;;;;18.50;39.53;95065.25;5035928;28;20205;-71
2022/05/01 11:26:27;;;;;;;3.55;2.80;;;;;;;18.29;38.43;95068.09;5035674;28;20213;-71
2022/05/01 11:28:56;;;;;;;3.15;2.95;;;;;;;18.37;40.19;95069.66;5036466;28;20231;-71
2022/05/01 11:31:44;;;;;;;3.33;3.03;;;;;;;18.71;40.50;95050.44;5018826;28;20289;-71
2022/05/01 11:34:41;;;;;;;2.88;2.67;;;;;;;18.77;39.50;95053.59;5037677;28;20232;-71
2022/05/01 11:37:09;;;;;;;3.60;2.72;;;;;;;18.54;38.25;95056.84;5018858;28;20315;-71
2022/05/01 11:40:14;;;;;;;3.05;2.78;;;;;;;17.99;36.40;95055.41;5021826;28;20218;-71
2022/05/01 11:42:41;;;;;;;2.95;2.75;;;;;;;17.70;36.95;95056.59;5022959;28;20198;-69
2022/05/01 11:45:11;;;;;;;3.75;2.80;;;;;;;17.45;38.87;95051.81;5017416;28;20222;-69
2022/05/01 11:47:40;;;;;;;3.05;2.85;;;;;;;17.35;37.26;95054.59;5017539;28;20206;-68
2022/05/01 11:50:08;;;;;;;3.47;3.17;;;;;;;17.31;37.45;95051.81;5033515;28;20209;-68
2022/05/01 11:52:38;;;;;;;5.25;4.13;;;;;;;17.28;37.64;95053.41;5032651;28;20301;-68
2022/05/01 11:55:08;;;;;;;2.90;2.60;;;;;;;17.17;37.14;95052.59;5033683;28;20196;-68
2022/05/01 12:03:11;;;;;;;4.22;3.20;;;;;;;17.12;37.70;95036.25;5017048;28;20194;-68
2022/05/01 12:05:46;;;;;;;3.63;2.80;;;;;;;17.11;37.30;95031.91;5034873;28;20209;-68
2022/05/01 12:08:13;;;;;;;3.20;3.00;;;;;;;17.11;37.81;95028.31;5035000;28;20198;-68
2022/05/01 12:10:41;;;;;;;3.20;3.00;;;;;;;17.12;38.14;95029.91;5017255;28;20198;-68
2022/05/01 12:13:20;;;;;;;3.25;2.72;;;;;;;17.09;39.33;95025.91;5033464;28;20220;-68
2022/05/01 12:15:49;;;;;;;3.50;3.15;;;;;;;17.11;40.26;95026.31;5034140;28;20294;-68
2022/05/01 12:18:17;;;;;;;2.83;2.63;;;;;;;17.11;38.28;95028.31;5016899;28;20190;-68
2022/05/01 12:20:46;;;;;;;2.90;2.70;;;;;;;17.06;39.71;95015.53;5016926;28;20174;-68